Time;durP1;ratioP1;P1;durP2;ratioP2;P2;SDS_P1;SDS_P2;PMS_P1;PMS_P2;Temp;Humidity;BMP_temperature;BMP_pressure;BME280_temperature;BME280_humidity;BME280_pressure;Samples;Min_cycle;Max_cycle;Signal;HPM_P1;HPM_P2
2022/07/27 00:02:05;;;;;;;1.73;1.30;;;23.80;63.60;;;;;;4957787;28;20592;-73
2022/07/27 00:04:33;;;;;;;1.20;1.10;;;23.80;63.70;;;;;;4957424;28;20466;-74
2022/07/27 00:06:59;;;;;;;1.93;1.43;;;23.80;63.70;;;;;;4973443;28;20449;-73
2022/07/27 00:09:28;;;;;;;1.97;1.40;;;23.80;63.70;;;;;;4957480;28;20465;-74
2022/07/27 00:12:02;;;;;;;4.37;1.20;;;23.80;63.60;;;;;;4974719;28;20512;-74
2022/07/27 00:14:28;;;;;;;1.30;1.10;;;23.80;63.60;;;;;;4955957;28;20986;-74
2022/07/27 00:16:54;;;;;;;2.17;1.20;;;23.80;63.70;;;;;;4953907;29;20768;-73
2022/07/27 00:19:22;;;;;;;3.27;1.30;;;23.70;63.60;;;;;;4954047;29;20434;-73
2022/07/27 00:21:48;;;;;;;2.93;1.13;;;23.70;63.70;;;;;;4953890;29;20467;-74
2022/07/27 00:24:14;;;;;;;1.20;0.90;;;23.70;63.70;;;;;;4953517;28;20513;-74
2022/07/27 00:26:46;;;;;;;1.83;1.40;;;23.70;63.70;;;;;;4972525;28;20469;-74
2022/07/27 00:29:14;;;;;;;2.83;1.30;;;23.70;63.70;;;;;;4941848;28;20446;-74
2022/07/27 00:31:41;;;;;;;2.43;1.33;;;23.70;63.70;;;;;;4954773;28;20470;-74
2022/07/27 00:34:06;;;;;;;3.60;1.23;;;23.70;63.70;;;;;;4937827;29;20430;-74
2022/07/27 00:36:32;;;;;;;1.40;1.20;;;23.70;63.70;;;;;;4937518;29;20515;-74
2022/07/27 00:39:02;;;;;;;2.20;1.10;;;23.70;63.70;;;;;;4953715;29;20203;-74
2022/07/27 00:41:34;;;;;;;2.70;1.60;;;23.70;63.70;;;;;;4953780;29;20550;-74
2022/07/27 00:44:09;;;;;;;1.73;1.20;;;23.60;63.60;;;;;;4956926;28;20468;-74
2022/07/27 00:46:35;;;;;;;1.90;1.23;;;23.60;63.60;;;;;;4956926;28;20462;-73
2022/07/27 00:49:03;;;;;;;1.53;1.00;;;23.60;63.70;;;;;;4969587;28;20926;-74
2022/07/27 00:51:33;;;;;;;1.33;1.10;;;23.60;63.70;;;;;;4954858;28;20447;-74
2022/07/27 00:53:59;;;;;;;2.40;1.20;;;23.60;63.80;;;;;;4953758;29;20404;-74
2022/07/27 00:56:26;;;;;;;1.63;1.10;;;23.60;63.70;;;;;;4937913;29;20946;-74
2022/07/27 00:58:52;;;;;;;1.43;1.10;;;23.60;63.70;;;;;;4961341;28;20430;-74
2022/07/27 01:01:19;;;;;;;2.07;1.53;;;23.60;63.80;;;;;;4972710;28;20487;-74
2022/07/27 01:03:47;;;;;;;1.30;1.20;;;23.60;64.60;;;;;;4956633;28;20553;-74
2022/07/27 01:06:14;;;;;;;1.60;1.20;;;23.50;63.70;;;;;;4972977;28;20421;-74
2022/07/27 01:08:43;;;;;;;1.33;1.13;;;23.50;63.70;;;;;;4956847;28;20713;-74
2022/07/27 01:11:11;;;;;;;2.33;1.60;;;23.50;63.70;;;;;;4972703;28;20581;-74
2022/07/27 01:13:40;;;;;;;1.37;1.03;;;23.50;63.70;;;;;;4956591;28;20525;-74
2022/07/27 01:16:09;;;;;;;1.30;1.20;;;23.50;63.80;;;;;;4972668;28;20506;-74
2022/07/27 01:18:42;;;;;;;1.70;1.30;;;23.50;63.80;;;;;;4972482;28;20426;-74
2022/07/27 01:21:19;;;;;;;1.63;1.10;;;23.50;63.80;;;;;;4962105;28;20462;-74
2022/07/27 01:23:51;;;;;;;2.63;1.20;;;23.50;63.90;;;;;;4956425;28;20458;-74
2022/07/27 01:26:17;;;;;;;2.20;1.00;;;23.40;63.80;;;;;;4972112;28;20951;-74
2022/07/27 01:28:44;;;;;;;1.60;1.50;;;23.40;63.80;;;;;;4963384;28;20472;-74
2022/07/27 01:31:14;;;;;;;1.60;1.00;;;23.40;63.80;;;;;;4954752;28;20446;-74
2022/07/27 01:33:40;;;;;;;1.40;1.13;;;23.40;63.80;;;;;;4969040;28;20509;-74
2022/07/27 01:36:07;;;;;;;1.63;1.40;;;23.40;63.90;;;;;;4973947;28;21157;-74
2022/07/27 01:38:33;;;;;;;2.57;1.70;;;23.40;63.90;;;;;;4977180;28;20823;-73
2022/07/27 01:40:59;;;;;;;1.57;1.30;;;23.40;63.90;;;;;;4976124;28;20446;-74
2022/07/27 01:43:31;;;;;;;1.50;1.00;;;23.30;63.90;;;;;;4960042;28;20922;-74
2022/07/27 01:45:59;;;;;;;2.03;1.20;;;23.40;64.00;;;;;;4960099;28;20202;-74
2022/07/27 01:48:25;;;;;;;2.70;1.40;;;23.30;63.90;;;;;;4977152;28;20420;-74
2022/07/27 01:50:54;;;;;;;4.20;1.40;;;23.30;63.90;;;;;;4976142;28;20948;-74
2022/07/27 01:53:20;;;;;;;1.90;1.23;;;23.30;64.00;;;;;;4977189;28;20497;-74
2022/07/27 01:55:50;;;;;;;1.10;1.00;;;23.30;64.00;;;;;;4960039;28;20903;-73
2022/07/27 01:58:18;;;;;;;3.37;1.20;;;23.30;64.00;;;;;;4976986;28;20508;-73
2022/07/27 02:00:49;;;;;;;1.73;1.20;;;23.30;64.00;;;;;;4976146;28;20556;-74
2022/07/27 02:03:15;;;;;;;1.97;1.20;;;23.30;64.10;;;;;;4977239;28;20394;-73
2022/07/27 02:05:44;;;;;;;1.33;1.23;;;23.30;64.10;;;;;;4959895;28;20826;-74
2022/07/27 02:08:10;;;;;;;3.00;1.20;;;23.30;64.10;;;;;;4976546;28;20449;-73
2022/07/27 02:12:34;;;;;;;1.23;0.93;;;23.20;64.10;;;;;;4975460;28;20433;-74
2022/07/27 02:13:23;;;;;;;4.53;1.50;;;23.20;64.10;;;;;;4976305;28;21003;-74
2022/07/27 02:15:51;;;;;;;1.70;1.30;;;23.20;64.10;;;;;;4975228;28;20405;-74
2022/07/27 02:18:18;;;;;;;1.73;1.43;;;23.20;64.10;;;;;;4959372;28;20426;-74
2022/07/27 02:20:49;;;;;;;1.23;1.13;;;23.20;64.20;;;;;;4975598;28;20504;-74
2022/07/27 02:23:15;;;;;;;1.60;1.13;;;23.20;64.20;;;;;;4975566;28;20489;-73
2022/07/27 02:25:41;;;;;;;2.20;1.37;;;23.20;64.20;;;;;;4959038;28;20481;-74
2022/07/27 02:28:18;;;;;;;1.33;1.23;;;23.10;64.10;;;;;;4960199;28;20433;-74
2022/07/27 02:30:45;;;;;;;2.30;1.40;;;23.10;64.20;;;;;;4975341;28;20434;-73
2022/07/27 02:33:13;;;;;;;2.20;1.33;;;23.10;64.20;;;;;;4975107;28;20896;-74
2022/07/27 02:35:39;;;;;;;2.17;1.00;;;23.10;64.20;;;;;;4975441;28;20422;-73
2022/07/27 02:38:05;;;;;;;2.17;1.20;;;23.10;64.20;;;;;;4976148;28;20473;-73
2022/07/27 02:40:31;;;;;;;2.70;1.40;;;23.10;64.20;;;;;;4959279;28;20437;-74
2022/07/27 02:43:00;;;;;;;2.23;1.50;;;23.10;64.30;;;;;;4955959;28;20518;-73
2022/07/27 02:45:26;;;;;;;1.63;1.17;;;23.00;64.20;;;;;;4939419;29;20524;-74
2022/07/27 02:47:52;;;;;;;1.50;1.20;;;23.00;64.20;;;;;;4956473;28;20905;-74
2022/07/27 02:50:26;;;;;;;1.40;1.30;;;23.00;64.30;;;;;;4974529;28;20437;-73
2022/07/27 02:52:57;;;;;;;1.40;1.20;;;23.00;64.30;;;;;;4958866;28;20426;-74
2022/07/27 02:55:23;;;;;;;1.53;1.30;;;23.00;64.30;;;;;;4942842;28;20463;-73
2022/07/27 02:57:49;;;;;;;1.53;1.00;;;23.00;64.40;;;;;;4975649;28;20448;-74
2022/07/27 03:00:15;;;;;;;1.70;1.10;;;23.00;64.40;;;;;;4958844;28;20460;-74
2022/07/27 03:02:48;;;;;;;2.07;1.07;;;23.00;64.40;;;;;;4942806;28;20738;-74
2022/07/27 03:05:14;;;;;;;1.80;1.27;;;23.00;64.50;;;;;;4975668;28;20441;-73
2022/07/27 03:07:44;;;;;;;1.30;1.17;;;22.90;64.40;;;;;;4974262;28;20454;-74
2022/07/27 03:10:10;;;;;;;2.20;1.37;;;22.90;64.40;;;;;;4974449;28;20449;-74
2022/07/27 03:12:38;;;;;;;1.30;1.20;;;22.90;64.40;;;;;;4955079;29;20982;-74
2022/07/27 03:15:05;;;;;;;2.63;1.30;;;22.90;64.40;;;;;;4971328;28;20416;-73
2022/07/27 03:17:32;;;;;;;1.43;1.27;;;22.80;64.30;;;;;;4939109;29;20422;-73
2022/07/27 03:20:00;;;;;;;1.80;1.43;;;22.90;64.50;;;;;;4971080;28;20582;-74
2022/07/27 03:22:31;;;;;;;3.20;1.27;;;22.90;64.50;;;;;;4974768;28;20433;-74
2022/07/27 03:24:57;;;;;;;2.23;1.60;;;22.80;64.40;;;;;;4942044;28;20940;-73
2022/07/27 03:27:26;;;;;;;2.10;1.20;;;22.80;64.50;;;;;;4974263;28;20457;-73
2022/07/27 03:29:52;;;;;;;1.37;1.27;;;22.80;64.50;;;;;;4974346;28;20488;-73
2022/07/27 03:32:20;;;;;;;2.10;1.50;;;22.80;64.50;;;;;;4975305;28;20409;-74
2022/07/27 03:34:46;;;;;;;2.93;1.57;;;22.80;64.50;;;;;;4958298;28;20782;-73
2022/07/27 03:37:14;;;;;;;1.33;1.07;;;22.80;64.50;;;;;;4957994;28;20466;-74
2022/07/27 03:39:42;;;;;;;1.53;1.07;;;22.80;64.60;;;;;;4975019;28;20406;-73
2022/07/27 03:42:11;;;;;;;1.60;1.30;;;22.70;64.50;;;;;;4974080;28;20581;-73
2022/07/27 03:44:37;;;;;;;2.17;1.50;;;22.70;64.50;;;;;;4973783;28;20568;-73
2022/07/27 03:47:04;;;;;;;1.53;1.40;;;22.70;64.50;;;;;;4974017;28;20971;-73
2022/07/27 03:49:30;;;;;;;2.70;1.60;;;22.70;64.60;;;;;;4941549;28;20458;-74
2022/07/27 03:51:56;;;;;;;3.47;1.30;;;22.70;64.50;;;;;;4973647;28;20481;-73
2022/07/27 03:54:22;;;;;;;2.60;1.20;;;22.70;64.60;;;;;;4974646;28;20428;-73
2022/07/27 03:56:51;;;;;;;1.53;1.43;;;22.70;64.60;;;;;;4942028;28;20939;-73
2022/07/27 03:59:19;;;;;;;2.13;1.43;;;22.60;64.50;;;;;;4973322;28;20948;-74
2022/07/27 04:01:45;;;;;;;2.70;1.60;;;22.60;64.50;;;;;;4973390;28;20947;-74
2022/07/27 04:04:12;;;;;;;1.63;1.53;;;22.60;64.50;;;;;;4957351;28;20460;-74
2022/07/27 04:06:38;;;;;;;2.20;1.73;;;22.50;64.40;;;;;;4974567;28;20447;-74
2022/07/27 04:09:04;;;;;;;2.37;1.43;;;22.60;64.60;;;;;;4973318;28;20430;-74
2022/07/27 04:11:30;;;;;;;1.60;1.50;;;22.50;64.40;;;;;;4974626;28;20434;-74
2022/07/27 04:13:56;;;;;;;3.10;1.60;;;22.50;64.50;;;;;;4957417;28;20892;-73
2022/07/27 04:16:22;;;;;;;2.80;1.40;;;22.50;64.50;;;;;;4957581;28;20600;-74
2022/07/27 04:18:52;;;;;;;2.23;1.40;;;22.50;64.50;;;;;;4954107;28;20473;-74
2022/07/27 04:21:18;;;;;;;1.30;1.20;;;22.50;64.50;;;;;;4969780;28;20435;-74
2022/07/27 04:23:52;;;;;;;1.37;1.20;;;22.50;64.60;;;;;;4983756;28;20474;-73
2022/07/27 04:26:20;;;;;;;2.70;1.40;;;22.40;64.40;;;;;;4973085;28;20874;-73
2022/07/27 04:28:46;;;;;;;1.90;1.23;;;22.40;64.40;;;;;;4974178;28;20969;-73
2022/07/27 04:31:15;;;;;;;2.00;1.80;;;22.40;64.50;;;;;;4956530;28;20451;-74
2022/07/27 04:33:45;;;;;;;4.40;1.40;;;22.40;64.50;;;;;;4962637;28;20989;-73
2022/07/27 04:36:13;;;;;;;2.37;1.30;;;22.40;64.50;;;;;;4973238;28;20405;-71
2022/07/27 04:38:38;;;;;;;2.70;1.50;;;22.40;64.50;;;;;;4957234;28;20465;-71
2022/07/27 04:41:05;;;;;;;2.63;1.53;;;22.40;64.50;;;;;;4973135;28;20450;-72
2022/07/27 04:43:31;;;;;;;2.40;1.53;;;22.40;64.60;;;;;;4955917;28;20442;-72
2022/07/27 04:45:57;;;;;;;2.30;1.50;;;22.30;64.50;;;;;;4955886;28;20431;-72
2022/07/27 04:48:23;;;;;;;1.60;1.30;;;22.30;64.50;;;;;;4971980;28;20464;-72
2022/07/27 04:50:52;;;;;;;1.80;1.60;;;22.30;64.50;;;;;;4956415;28;20268;-72
2022/07/27 04:53:18;;;;;;;2.07;1.30;;;22.30;64.60;;;;;;4973580;28;20398;-71
2022/07/27 04:55:46;;;;;;;3.13;1.50;;;22.30;64.60;;;;;;4972213;28;20174;-72
2022/07/27 04:58:16;;;;;;;2.30;1.70;;;22.30;64.60;;;;;;4956160;28;20432;-72
2022/07/27 05:00:47;;;;;;;2.00;1.50;;;22.20;64.50;;;;;;4955692;28;20529;-72
2022/07/27 05:03:15;;;;;;;2.17;1.20;;;22.30;64.70;;;;;;4971743;28;20421;-72
2022/07/27 05:05:41;;;;;;;3.10;1.47;;;22.20;64.70;;;;;;4973311;28;20861;-72
2022/07/27 05:08:07;;;;;;;3.03;1.40;;;22.20;64.60;;;;;;4971744;28;20456;-72
2022/07/27 05:10:33;;;;;;;4.70;1.60;;;22.20;64.70;;;;;;4972231;28;20512;-72
2022/07/27 05:13:02;;;;;;;1.97;1.30;;;22.20;64.80;;;;;;4970718;28;20473;-69
2022/07/27 05:15:32;;;;;;;2.43;1.20;;;22.20;64.80;;;;;;4969789;28;20503;-69
2022/07/27 05:18:10;;;;;;;1.60;1.30;;;22.20;64.80;;;;;;4975788;28;20464;-69
2022/07/27 05:20:38;;;;;;;2.77;1.20;;;22.20;64.90;;;;;;4959609;28;20492;-69
2022/07/27 05:23:07;;;;;;;2.87;1.30;;;22.20;64.90;;;;;;4959836;28;20478;-69
2022/07/27 05:25:33;;;;;;;1.63;1.23;;;22.20;64.90;;;;;;4975887;28;20892;-69
2022/07/27 05:28:02;;;;;;;2.10;1.30;;;22.20;65.00;;;;;;4976655;28;20428;-69
2022/07/27 05:30:28;;;;;;;1.97;1.53;;;22.20;65.00;;;;;;4959230;28;20453;-69
2022/07/27 05:32:57;;;;;;;2.27;1.30;;;22.20;65.00;;;;;;4959857;28;20422;-70
2022/07/27 05:35:23;;;;;;;1.80;1.60;;;22.10;64.90;;;;;;4975197;28;20508;-70
2022/07/27 05:37:49;;;;;;;1.73;1.30;;;22.10;64.90;;;;;;4958777;28;21032;-69
2022/07/27 05:40:15;;;;;;;1.67;1.40;;;22.10;64.90;;;;;;4958872;28;20453;-70
2022/07/27 05:42:42;;;;;;;3.77;2.40;;;22.10;65.00;;;;;;4974007;28;20451;-70
2022/07/27 05:45:09;;;;;;;1.30;1.20;;;22.10;65.00;;;;;;4975959;28;20539;-70
2022/07/27 05:47:35;;;;;;;1.93;1.30;;;22.10;65.10;;;;;;4975871;28;20467;-70
2022/07/27 05:50:01;;;;;;;2.20;1.37;;;22.10;65.10;;;;;;4975201;28;20577;-70
2022/07/27 05:52:27;;;;;;;1.60;1.30;;;22.10;65.20;;;;;;4958111;28;20526;-71
2022/07/27 05:54:55;;;;;;;1.73;1.10;;;22.10;65.20;;;;;;4951878;28;20445;-70
2022/07/27 05:57:35;;;;;;;3.17;1.67;;;22.10;65.20;;;;;;4976183;28;20408;-70
2022/07/27 06:00:03;;;;;;;1.73;1.63;;;22.10;65.30;;;;;;4974518;28;20986;-70
2022/07/27 06:02:38;;;;;;;2.57;1.50;;;22.10;65.30;;;;;;4959402;28;20424;-70
2022/07/27 06:05:07;;;;;;;3.33;1.50;;;22.00;65.20;;;;;;4974185;28;20453;-70
2022/07/27 06:10:17;;;;;;;2.53;1.40;;;22.00;65.30;;;;;;4975617;28;20461;-70
2022/07/27 06:12:44;;;;;;;3.63;1.40;;;22.00;65.30;;;;;;4975434;28;20406;-70
2022/07/27 06:15:18;;;;;;;2.50;1.10;;;22.00;65.40;;;;;;4974378;28;20513;-70
2022/07/27 06:17:45;;;;;;;5.10;1.80;;;22.00;65.40;;;;;;4975230;28;20797;-70
2022/07/27 06:20:18;;;;;;;1.90;1.60;;;22.00;66.20;;;;;;4975125;28;20471;-70
2022/07/27 06:22:55;;;;;;;2.50;1.33;;;22.00;65.40;;;;;;4974525;28;20796;-70
2022/07/27 06:25:23;;;;;;;2.63;1.23;;;21.90;65.30;;;;;;4975129;28;20488;-68
2022/07/27 06:27:52;;;;;;;1.90;1.63;;;22.00;65.50;;;;;;4974653;28;20458;-68
2022/07/27 06:30:19;;;;;;;2.43;1.40;;;22.00;65.60;;;;;;4973821;28;20967;-68
2022/07/27 06:32:45;;;;;;;2.40;1.73;;;22.00;65.60;;;;;;4973877;28;20585;-68
2022/07/27 06:35:40;;;;;;;2.43;1.37;;;21.90;65.50;;;;;;4937911;28;20924;-69
2022/07/27 06:38:07;;;;;;;2.30;1.60;;;21.90;65.50;;;;;;4973194;28;20445;-68
2022/07/27 06:40:34;;;;;;;1.80;1.70;;;21.90;65.50;;;;;;4973719;28;20449;-68
2022/07/27 06:43:00;;;;;;;2.30;1.43;;;21.90;65.60;;;;;;4974832;28;20414;-68
2022/07/27 06:45:26;;;;;;;2.13;1.40;;;21.90;65.50;;;;;;4973666;28;20453;-69
2022/07/27 06:47:52;;;;;;;5.37;1.60;;;21.90;65.50;;;;;;4974828;28;20459;-69
2022/07/27 06:50:22;;;;;;;2.23;1.77;;;21.90;65.50;;;;;;4973654;28;20465;-68
2022/07/27 06:52:48;;;;;;;2.80;1.60;;;21.90;65.60;;;;;;4974686;28;20919;-68
2022/07/27 06:55:14;;;;;;;2.73;1.37;;;21.90;65.50;;;;;;4973544;28;20426;-68
2022/07/27 06:57:42;;;;;;;2.93;1.50;;;21.90;65.50;;;;;;4941830;28;20783;-68
2022/07/27 07:00:14;;;;;;;1.90;1.60;;;21.90;65.50;;;;;;4957813;28;20460;-68
2022/07/27 07:02:55;;;;;;;2.17;1.50;;;21.90;65.50;;;;;;4974394;28;21012;-69
2022/07/27 07:05:26;;;;;;;2.83;1.20;;;21.90;65.50;;;;;;4973152;28;20508;-69
2022/07/27 07:07:58;;;;;;;2.30;1.60;;;21.90;65.50;;;;;;4957086;28;20465;-69
2022/07/27 07:10:27;;;;;;;1.60;1.40;;;21.90;65.40;;;;;;4974772;28;20430;-69
2022/07/27 07:12:56;;;;;;;2.53;1.23;;;21.90;65.50;;;;;;4972266;28;20454;-68
2022/07/27 07:15:51;;;;;;;3.67;1.10;;;21.90;65.40;;;;;;4960222;28;21005;-69
2022/07/27 07:18:17;;;;;;;1.83;1.40;;;21.90;65.40;;;;;;4974149;28;20542;-68
2022/07/27 07:20:43;;;;;;;3.10;1.30;;;21.90;65.40;;;;;;4973072;28;20446;-68
2022/07/27 07:23:10;;;;;;;2.90;1.60;;;21.90;65.30;;;;;;4957100;28;20434;-69
2022/07/27 07:25:39;;;;;;;1.67;1.30;;;21.90;65.20;;;;;;4956732;28;20523;-68
2022/07/27 07:28:06;;;;;;;1.80;1.40;;;21.90;65.20;;;;;;4972747;28;20527;-69
2022/07/27 07:30:32;;;;;;;1.87;1.13;;;21.90;65.10;;;;;;4973970;28;20516;-69
2022/07/27 07:33:01;;;;;;;2.50;1.00;;;21.90;65.10;;;;;;4972646;28;20418;-69
2022/07/27 07:35:30;;;;;;;1.50;1.10;;;21.90;65.00;;;;;;4972195;28;20438;-69
2022/07/27 07:37:56;;;;;;;1.17;0.97;;;21.90;65.00;;;;;;4973746;28;20462;-69
2022/07/27 07:40:25;;;;;;;1.50;1.10;;;21.90;65.00;;;;;;4972575;28;20947;-68
2022/07/27 07:42:54;;;;;;;1.60;1.20;;;22.00;65.10;;;;;;4956533;28;20521;-69
2022/07/27 07:45:26;;;;;;;1.90;1.40;;;22.00;64.90;;;;;;4972278;28;20478;-68
2022/07/27 07:47:58;;;;;;;1.30;1.20;;;22.00;64.80;;;;;;4973781;28;20919;-68
2022/07/27 07:50:27;;;;;;;3.47;1.57;;;22.00;64.80;;;;;;4971739;28;20869;-69
2022/07/27 07:52:53;;;;;;;1.80;1.50;;;22.00;64.70;;;;;;4973451;28;20476;-69
2022/07/27 07:55:24;;;;;;;3.07;1.87;;;22.00;64.70;;;;;;4972662;28;20414;-69
2022/07/27 07:57:51;;;;;;;1.80;1.40;;;22.00;64.60;;;;;;4973254;28;20425;-69
2022/07/27 08:00:19;;;;;;;2.20;1.40;;;22.00;64.60;;;;;;4973365;28;20821;-68
2022/07/27 08:02:56;;;;;;;2.13;1.20;;;22.10;64.60;;;;;;4972424;28;20460;-69
2022/07/27 08:05:25;;;;;;;2.40;1.20;;;22.10;64.60;;;;;;4972466;28;20472;-69
2022/07/27 08:07:56;;;;;;;1.43;1.27;;;22.10;64.60;;;;;;4955909;28;20434;-69
2022/07/27 08:10:22;;;;;;;3.90;1.00;;;22.10;64.50;;;;;;4972113;28;20441;-69
2022/07/27 08:12:51;;;;;;;1.90;1.20;;;22.10;64.50;;;;;;4972878;28;20437;-69
2022/07/27 08:15:18;;;;;;;1.67;1.00;;;22.10;64.50;;;;;;4973266;28;20472;-69
2022/07/27 08:17:44;;;;;;;2.43;1.03;;;22.20;64.50;;;;;;4973463;28;20429;-68
2022/07/27 08:20:14;;;;;;;2.50;1.20;;;22.20;64.40;;;;;;4972013;28;20622;-69
2022/07/27 08:22:41;;;;;;;2.97;1.33;;;22.20;64.30;;;;;;4972948;28;20500;-69
2022/07/27 08:25:09;;;;;;;3.20;1.53;;;22.20;64.30;;;;;;4971820;28;20826;-68
2022/07/27 08:27:37;;;;;;;2.47;1.50;;;22.20;64.20;;;;;;4955789;28;20797;-68
2022/07/27 08:30:08;;;;;;;1.53;1.40;;;22.20;64.20;;;;;;4972924;28;20532;-69
2022/07/27 08:32:57;;;;;;;2.27;1.50;;;22.30;64.10;;;;;;4972131;28;20938;-69
2022/07/27 08:35:23;;;;;;;1.60;1.37;;;22.30;64.00;;;;;;4972518;28;20962;-69
2022/07/27 08:37:54;;;;;;;4.60;1.60;;;22.30;64.00;;;;;;4972633;28;20528;-69
2022/07/27 08:40:25;;;;;;;2.20;1.70;;;22.30;63.90;;;;;;4955868;28;20850;-69
2022/07/27 08:42:51;;;;;;;3.13;1.60;;;22.30;63.90;;;;;;4972743;28;20520;-69
2022/07/27 08:45:23;;;;;;;2.10;1.50;;;22.30;63.90;;;;;;4972496;28;20555;-69
2022/07/27 08:47:49;;;;;;;2.07;1.57;;;22.30;63.80;;;;;;4961118;28;20448;-69
2022/07/27 08:50:27;;;;;;;2.67;2.00;;;22.40;64.00;;;;;;4955442;28;20447;-68
2022/07/27 08:52:59;;;;;;;2.40;1.63;;;22.40;64.00;;;;;;4955478;28;20866;-69
2022/07/27 08:55:28;;;;;;;4.30;1.90;;;22.40;63.90;;;;;;4971658;28;20410;-68
2022/07/27 08:57:54;;;;;;;2.20;1.60;;;22.40;63.80;;;;;;4972415;28;20481;-68
2022/07/27 09:00:21;;;;;;;2.30;1.53;;;22.40;63.70;;;;;;4955275;28;20485;-68
2022/07/27 09:02:49;;;;;;;1.90;1.70;;;22.40;63.70;;;;;;4971806;28;20533;-68
2022/07/27 09:05:15;;;;;;;3.50;2.00;;;22.40;63.60;;;;;;4971232;28;20464;-68
2022/07/27 09:07:41;;;;;;;2.20;1.50;;;22.40;63.60;;;;;;4971601;28;20426;-68
2022/07/27 09:10:11;;;;;;;2.17;1.70;;;22.40;63.50;;;;;;4939590;28;20469;-68
2022/07/27 09:12:37;;;;;;;1.50;1.40;;;22.40;63.40;;;;;;4972686;28;20477;-68
2022/07/27 09:15:13;;;;;;;3.00;1.50;;;22.40;63.40;;;;;;4972398;28;20433;-68
2022/07/27 09:17:43;;;;;;;5.43;1.43;;;22.50;63.60;;;;;;4972498;28;20946;-68
2022/07/27 09:20:18;;;;;;;1.90;1.60;;;22.50;63.50;;;;;;4971369;28;20438;-69
2022/07/27 09:22:53;;;;;;;1.30;1.20;;;22.50;63.50;;;;;;4972547;28;20464;-68
2022/07/27 09:25:22;;;;;;;1.97;1.57;;;22.50;63.40;;;;;;4954917;28;20495;-68
2022/07/27 09:27:52;;;;;;;2.40;1.53;;;22.50;63.40;;;;;;4970021;28;20469;-68
2022/07/27 09:30:21;;;;;;;2.10;1.70;;;22.50;63.50;;;;;;4939249;28;20479;-68
2022/07/27 09:33:03;;;;;;;2.50;1.70;;;22.50;63.30;;;;;;4972689;28;20973;-68
2022/07/27 09:35:34;;;;;;;1.97;1.60;;;22.60;63.40;;;;;;4972407;28;20441;-68
2022/07/27 09:38:20;;;;;;;1.50;1.40;;;22.50;63.20;;;;;;4971022;28;20437;-68
2022/07/27 09:40:48;;;;;;;2.30;1.50;;;22.50;63.20;;;;;;4972824;28;21003;-68
2022/07/27 09:43:14;;;;;;;3.30;1.67;;;22.50;63.20;;;;;;4970851;28;20474;-68
2022/07/27 09:45:45;;;;;;;2.37;1.63;;;22.60;63.40;;;;;;4970913;28;20839;-68
2022/07/27 09:48:14;;;;;;;1.97;1.30;;;22.60;63.40;;;;;;4971829;28;20433;-68
2022/07/27 09:50:45;;;;;;;1.60;1.50;;;22.60;63.30;;;;;;4971051;28;20509;-68
2022/07/27 09:53:22;;;;;;;2.10;1.73;;;22.60;63.30;;;;;;4955088;28;20426;-68
2022/07/27 09:56:10;;;;;;;3.30;1.60;;;22.60;63.10;;;;;;4971352;28;20437;-68
2022/07/27 09:58:47;;;;;;;3.00;1.47;;;22.70;63.20;;;;;;4973375;28;20430;-68
2022/07/27 10:01:19;;;;;;;1.50;1.40;;;22.70;63.00;;;;;;4974058;28;21057;-68
2022/07/27 10:03:46;;;;;;;2.30;1.50;;;22.70;62.90;;;;;;4957266;28;20466;-68
2022/07/27 10:06:13;;;;;;;4.17;1.70;;;22.70;62.90;;;;;;4941218;28;20489;-68
2022/07/27 10:08:44;;;;;;;3.80;1.67;;;22.70;62.90;;;;;;4974790;28;20504;-68
2022/07/27 10:11:13;;;;;;;2.00;1.60;;;22.80;63.00;;;;;;4973945;28;20449;-68
2022/07/27 10:13:41;;;;;;;2.30;1.73;;;22.80;62.90;;;;;;4973394;28;20457;-68
2022/07/27 10:16:11;;;;;;;2.50;1.37;;;22.80;62.80;;;;;;4974478;28;20417;-71
2022/07/27 10:19:04;;;;;;;2.00;1.50;;;22.80;62.80;;;;;;4974896;28;20986;-69
2022/07/27 10:21:32;;;;;;;2.60;1.73;;;22.90;62.80;;;;;;4957581;28;20457;-69
2022/07/27 10:24:27;;;;;;;1.87;1.70;;;22.90;62.80;;;;;;4974369;28;20508;-69
2022/07/27 10:26:55;;;;;;;2.33;1.67;;;22.90;62.80;;;;;;4965372;28;20443;-68
2022/07/27 10:29:25;;;;;;;1.73;1.50;;;22.90;62.60;;;;;;4955011;29;20435;-69
2022/07/27 10:31:54;;;;;;;2.53;1.50;;;22.90;62.60;;;;;;4989840;28;20976;-68
2022/07/27 10:34:36;;;;;;;2.83;1.60;;;22.90;62.60;;;;;;4974881;28;20947;-68
2022/07/27 10:37:31;;;;;;;3.10;1.80;;;22.90;62.50;;;;;;4974311;28;20505;-68
2022/07/27 10:43:15;;;;;;;3.20;1.83;;;23.00;62.70;;;;;;4972840;28;20816;-68
2022/07/27 10:45:49;;;;;;;1.83;1.70;;;23.00;62.70;;;;;;4974876;28;21022;-68
2022/07/27 10:48:39;;;;;;;2.13;1.50;;;23.00;62.60;;;;;;4938897;29;20411;-69
2022/07/27 10:51:11;;;;;;;2.60;1.90;;;23.00;62.60;;;;;;4961455;28;20548;-68
2022/07/27 10:53:40;;;;;;;2.07;1.67;;;23.00;62.60;;;;;;4958067;28;20410;-68
2022/07/27 10:56:07;;;;;;;2.97;1.60;;;23.00;62.60;;;;;;4973436;28;20863;-68
2022/07/27 10:58:33;;;;;;;2.67;1.70;;;23.00;62.40;;;;;;4973430;28;20418;-68
2022/07/27 11:01:06;;;;;;;3.10;2.33;;;23.00;62.40;;;;;;4957412;28;20450;-68
2022/07/27 11:03:38;;;;;;;2.40;2.00;;;23.00;62.20;;;;;;4973592;28;20424;-68
2022/07/27 11:06:16;;;;;;;2.30;2.10;;;23.00;62.20;;;;;;4974961;28;20469;-68
2022/07/27 11:08:44;;;;;;;2.00;1.70;;;23.00;62.30;;;;;;4957225;28;20446;-68
2022/07/27 11:11:19;;;;;;;2.87;1.87;;;23.10;62.20;;;;;;4973577;28;20809;-68
2022/07/27 11:13:48;;;;;;;3.50;2.20;;;23.10;61.90;;;;;;4974474;28;20429;-67
2022/07/27 11:16:19;;;;;;;2.20;1.90;;;23.10;61.90;;;;;;4973429;28;20465;-68
2022/07/27 11:19:00;;;;;;;2.33;1.90;;;23.10;61.90;;;;;;4974604;28;20457;-68
2022/07/27 11:21:26;;;;;;;3.60;1.90;;;23.10;61.60;;;;;;4973006;28;20472;-68
2022/07/27 11:23:58;;;;;;;2.53;2.00;;;23.10;61.40;;;;;;4957050;28;20473;-67
2022/07/27 11:26:31;;;;;;;3.63;1.97;;;23.10;61.30;;;;;;4973083;28;20556;-68
2022/07/27 11:28:57;;;;;;;4.10;2.83;;;23.10;61.30;;;;;;4974454;28;20904;-68
2022/07/27 11:31:26;;;;;;;4.90;2.10;;;23.10;61.20;;;;;;4973980;28;20446;-68
2022/07/27 11:33:55;;;;;;;1.83;1.70;;;23.20;61.40;;;;;;4973830;28;20438;-68
2022/07/27 11:36:33;;;;;;;2.17;1.70;;;23.20;61.20;;;;;;4973077;28;20403;-68
2022/07/27 11:38:59;;;;;;;3.60;2.00;;;23.20;61.20;;;;;;4972535;28;20462;-68
2022/07/27 11:41:33;;;;;;;2.33;1.70;;;23.20;60.90;;;;;;4972761;28;20453;-68
2022/07/27 11:44:03;;;;;;;3.43;2.03;;;23.20;61.00;;;;;;4972905;28;20454;-68
2022/07/27 11:46:34;;;;;;;2.27;1.67;;;23.20;61.50;;;;;;4972746;28;20442;-68
2022/07/27 11:49:09;;;;;;;2.10;1.60;;;23.20;61.20;;;;;;4972554;28;20416;-68
2022/07/27 11:51:41;;;;;;;1.87;1.77;;;23.20;60.90;;;;;;4973293;28;20539;-68
2022/07/27 11:54:19;;;;;;;2.40;1.70;;;23.30;61.20;;;;;;4972531;28;20432;-68
2022/07/27 11:56:56;;;;;;;3.60;2.00;;;23.30;61.30;;;;;;4971442;28;20464;-68
2022/07/27 11:59:25;;;;;;;2.10;1.90;;;23.30;61.30;;;;;;4973180;28;20483;-69
2022/07/27 12:02:01;;;;;;;2.43;1.60;;;23.30;61.00;;;;;;4972136;28;20458;-68
2022/07/27 12:04:28;;;;;;;2.33;1.67;;;23.30;61.00;;;;;;4973201;28;20564;-68
2022/07/27 12:07:27;;;;;;;1.90;1.80;;;23.30;60.70;;;;;;4965084;28;20448;-69
2022/07/27 12:10:00;;;;;;;2.50;1.53;;;23.30;60.60;;;;;;4955575;28;20476;-68
2022/07/27 12:12:28;;;;;;;2.37;1.40;;;23.40;60.90;;;;;;4972459;28;20441;-69
2022/07/27 12:15:18;;;;;;;2.00;1.60;;;23.40;60.40;;;;;;4958496;28;20432;-69
2022/07/27 12:17:53;;;;;;;1.83;1.63;;;23.40;60.40;;;;;;4973029;28;20497;-69
2022/07/27 12:20:30;;;;;;;2.27;1.80;;;23.40;60.20;;;;;;4971233;28;20461;-69
2022/07/27 12:23:03;;;;;;;3.30;1.70;;;23.40;60.00;;;;;;4973291;28;20532;-69
2022/07/27 12:25:31;;;;;;;2.67;1.60;;;23.40;60.10;;;;;;4971712;28;20569;-69
2022/07/27 12:27:59;;;;;;;2.03;1.80;;;23.50;59.90;;;;;;4971750;28;20464;-69
2022/07/27 12:30:48;;;;;;;2.47;1.40;;;23.50;59.70;;;;;;4971734;28;20465;-68
2022/07/27 12:33:29;;;;;;;1.97;1.70;;;23.50;59.60;;;;;;4953036;29;20494;-68
2022/07/27 12:35:57;;;;;;;2.07;1.57;;;23.50;59.60;;;;;;4963584;28;20927;-68
2022/07/27 12:38:26;;;;;;;2.93;1.50;;;23.60;59.80;;;;;;4973112;28;20406;-69
2022/07/27 12:40:57;;;;;;;1.57;1.27;;;23.50;59.70;;;;;;4955264;28;20466;-69
2022/07/27 12:43:25;;;;;;;3.20;1.80;;;23.60;59.60;;;;;;4955348;28;20780;-69
2022/07/27 12:45:54;;;;;;;2.37;1.57;;;23.60;59.50;;;;;;4972427;28;20462;-68
2022/07/27 12:48:22;;;;;;;1.50;1.40;;;23.60;59.80;;;;;;4953773;28;20407;-68
2022/07/27 12:51:02;;;;;;;4.27;1.50;;;23.60;59.30;;;;;;4955179;28;21081;-69
2022/07/27 12:53:30;;;;;;;2.00;1.50;;;23.60;59.30;;;;;;4971721;28;20930;-68
2022/07/27 12:56:01;;;;;;;1.47;1.37;;;23.70;59.30;;;;;;4961438;28;20446;-68
2022/07/27 12:58:27;;;;;;;1.90;1.70;;;23.70;58.90;;;;;;4967605;28;20529;-68
2022/07/27 13:00:55;;;;;;;1.40;1.30;;;23.70;59.00;;;;;;4972338;28;20536;-69
2022/07/27 13:03:22;;;;;;;1.93;1.40;;;23.70;58.90;;;;;;4955739;28;21026;-69
2022/07/27 13:05:50;;;;;;;2.60;1.20;;;23.80;59.10;;;;;;4971576;28;20485;-69
2022/07/27 13:08:18;;;;;;;2.83;1.80;;;23.80;59.40;;;;;;4972235;28;20440;-69